VMMC/MFM METAR and TAF weather

Enter ICAO airport designator
Station Type Date Time Source
VMMC METAR 2019/08/21 22:30 UTC NOAA

VMMC 212230Z 16004KT 9999 FEW015 28/25 Q1006 NOSIG


Station Type Date Time Source
VMMC Decoded METAR 2019/08/21 22:30 UTC NOAA

Station name not available
Aug 21, 2019 - 06:30 PM EDT / 2019.08.21 2230 UTC
Wind: from the SSE (160 degrees) at 5 MPH (4 KT):0
Visibility: greater than 7 mile(s):0
Sky conditions: mostly clear
Temperature: 82 F (28 C)
Dew Point: 77 F (25 C)
Relative Humidity: 83%
Pressure (altimeter): 29.71 in. Hg (1006 hPa)
ob: VMMC 212230Z 16004KT 9999 FEW015 28/25 Q1006 NOSIG
cycle: 22

Station Type Date Time Source
VMMC TAF 2019/08/21 18:21 UTC NOAA

TAF VMMC 211700Z 2118/2224 VRB03KT 9999 FEW020
TEMPO 2120/2202 4000 SHRA FEW012CB SCT020
TEMPO 2206/2212 16010KT

Example: see airport list